createdAt,value
2023-02-24T00:01:52.854Z,10.30
2023-02-24T00:04:21.149Z,10.30
2023-02-24T00:06:49.156Z,10.30
2023-02-24T00:09:22.290Z,10.20
2023-02-24T00:11:58.285Z,10.20
2023-02-24T00:14:28.556Z,10.20
2023-02-24T00:16:58.616Z,10.10
2023-02-24T00:19:29.301Z,10.10
2023-02-24T00:21:56.627Z,10.10
2023-02-24T00:24:28.200Z,10.10
2023-02-24T00:26:59.742Z,10.00
2023-02-24T00:29:29.235Z,10.00
2023-02-24T00:32:00.951Z,10.00
2023-02-24T00:34:34.115Z,9.90
2023-02-24T00:37:03.292Z,9.90
2023-02-24T00:39:30.801Z,9.80
2023-02-24T00:42:05.165Z,9.80
2023-02-24T00:44:40.720Z,9.80
2023-02-24T00:47:10.639Z,9.80
2023-02-24T00:49:43.214Z,9.70
2023-02-24T00:52:13.909Z,9.70
2023-02-24T00:54:42.956Z,9.70
2023-02-24T00:57:11.109Z,9.70
2023-02-24T00:59:38.631Z,9.60
2023-02-24T01:02:07.998Z,9.60
2023-02-24T01:04:37.916Z,9.60
2023-02-24T01:07:11.156Z,9.60
2023-02-24T01:09:42.118Z,9.60
2023-02-24T01:12:38.575Z,9.60
2023-02-24T01:15:09.240Z,9.50
2023-02-24T01:17:37.928Z,9.50
2023-02-24T01:20:16.955Z,9.50
2023-02-24T01:22:46.519Z,9.50
2023-02-24T01:25:13.683Z,9.50
2023-02-24T01:27:41.190Z,9.50
2023-02-24T01:30:14.068Z,9.50
2023-02-24T01:32:41.478Z,9.40
2023-02-24T01:35:09.854Z,9.50
2023-02-24T01:37:36.868Z,9.50
2023-02-24T01:40:11.467Z,9.50
2023-02-24T01:42:42.032Z,9.50
2023-02-24T01:45:16.180Z,9.50
2023-02-24T01:47:47.440Z,9.50
2023-02-24T01:50:16.394Z,9.40
2023-02-24T01:52:47.100Z,9.40
2023-02-24T01:55:24.702Z,9.50
2023-02-24T01:57:53.651Z,9.40
2023-02-24T02:00:41.486Z,9.40
2023-02-24T02:03:15.808Z,9.40
2023-02-24T02:05:43.183Z,9.40
2023-02-24T02:08:11.625Z,9.40
2023-02-24T02:10:41.375Z,9.40
2023-02-24T02:13:08.400Z,9.30
2023-02-24T02:15:47.122Z,9.30
2023-02-24T02:18:38.621Z,9.30
2023-02-24T02:21:27.249Z,9.30
2023-02-24T02:24:20.315Z,9.30
2023-02-24T02:27:21.334Z,9.20
2023-02-24T02:30:17.514Z,9.20
2023-02-24T02:33:13.297Z,9.20
2023-02-24T02:36:07.274Z,9.20
2023-02-24T02:38:52.369Z,9.10
2023-02-24T02:41:22.224Z,9.00
2023-02-24T02:44:21.479Z,8.90
2023-02-24T02:46:56.665Z,8.90
2023-02-24T02:49:55.190Z,8.90
2023-02-24T02:52:41.208Z,8.80
2023-02-24T02:55:11.808Z,8.80
2023-02-24T02:57:47.343Z,8.80
2023-02-24T03:00:21.693Z,8.80
2023-02-24T03:02:55.581Z,8.80
2023-02-24T03:05:32.054Z,8.80
2023-02-24T03:08:04.989Z,8.70
2023-02-24T03:10:34.557Z,8.70
2023-02-24T03:13:06.269Z,8.70
2023-02-24T03:15:34.596Z,8.60
2023-02-24T03:18:11.302Z,8.60
2023-02-24T03:20:47.565Z,8.60
2023-02-24T03:23:32.071Z,8.70
2023-02-24T03:26:25.232Z,8.70
2023-02-24T03:29:11.565Z,8.80
2023-02-24T03:32:05.710Z,8.80
2023-02-24T03:34:49.840Z,8.70
2023-02-24T03:37:17.152Z,8.70
2023-02-24T03:39:47.108Z,8.80
2023-02-24T03:42:19.442Z,8.80
2023-02-24T03:44:46.801Z,8.80
2023-02-24T03:47:20.414Z,8.80
2023-02-24T03:49:48.278Z,8.80
2023-02-24T03:52:33.335Z,8.80
2023-02-24T03:55:24.631Z,8.90
2023-02-24T03:58:04.387Z,8.90
2023-02-24T04:00:55.702Z,8.80
2023-02-24T04:03:36.876Z,8.80
2023-02-24T04:06:44.712Z,8.80
2023-02-24T04:09:22.906Z,8.90
2023-02-24T04:12:09.535Z,8.90
2023-02-24T04:14:40.968Z,8.90
2023-02-24T04:17:19.495Z,8.90
2023-02-24T04:19:50.809Z,8.90
2023-02-24T04:22:24.731Z,8.90
2023-02-24T04:24:56.348Z,9.00
2023-02-24T04:27:24.254Z,9.00
2023-02-24T04:29:55.228Z,9.00
2023-02-24T04:32:27.568Z,9.00
2023-02-24T04:35:02.397Z,9.00
2023-02-24T04:37:33.978Z,9.00
2023-02-24T04:40:01.196Z,9.00
2023-02-24T04:42:28.760Z,9.00
2023-02-24T04:44:58.748Z,8.90
2023-02-24T04:47:29.171Z,8.90
2023-02-24T04:49:56.192Z,8.90
2023-02-24T04:52:23.236Z,8.90
2023-02-24T04:54:50.236Z,8.90
2023-02-24T04:57:17.198Z,8.90
2023-02-24T04:59:44.344Z,8.90
2023-02-24T05:02:11.452Z,8.90
2023-02-24T05:04:39.101Z,8.90
2023-02-24T05:07:06.289Z,9.00
2023-02-24T05:09:33.317Z,9.00
2023-02-24T05:12:00.525Z,9.00
2023-02-24T05:14:28.052Z,9.00
2023-02-24T05:17:00.609Z,9.00
2023-02-24T05:19:47.587Z,9.00
2023-02-24T05:22:17.657Z,8.90
2023-02-24T05:24:48.269Z,8.90
2023-02-24T05:27:17.718Z,8.90
2023-02-24T05:29:44.994Z,8.90
2023-02-24T05:32:13.372Z,8.90
2023-02-24T05:34:40.451Z,8.90
2023-02-24T05:37:10.826Z,8.90
2023-02-24T05:39:38.446Z,8.90
2023-02-24T05:42:07.101Z,8.80
2023-02-24T05:44:35.872Z,8.90
2023-02-24T05:47:05.822Z,8.90
2023-02-24T05:49:35.178Z,8.90
2023-02-24T05:52:08.288Z,8.80
2023-02-24T05:54:41.998Z,8.80
2023-02-24T05:57:17.698Z,8.70
2023-02-24T05:59:44.896Z,8.70
2023-02-24T06:02:17.313Z,8.60
2023-02-24T06:04:51.493Z,8.60
2023-02-24T06:07:23.102Z,8.60
2023-02-24T06:09:57.502Z,8.60
2023-02-24T06:12:34.006Z,8.60
2023-02-24T06:15:08.137Z,8.60
2023-02-24T06:17:35.665Z,8.50
2023-02-24T06:20:13.280Z,8.40
2023-02-24T06:22:42.617Z,8.40
2023-02-24T06:25:14.487Z,8.40
2023-02-24T06:27:43.252Z,8.40
2023-02-24T06:30:11.141Z,8.40
2023-02-24T06:32:38.529Z,8.40
2023-02-24T06:35:06.205Z,8.40
2023-02-24T06:37:33.293Z,8.40
2023-02-24T06:40:00.365Z,8.50
2023-02-24T06:42:27.759Z,8.60
2023-02-24T06:44:54.967Z,8.70
2023-02-24T06:47:23.184Z,8.80
2023-02-24T06:49:50.151Z,8.80
2023-02-24T06:52:19.278Z,8.80
2023-02-24T06:54:49.680Z,8.80
2023-02-24T06:57:16.771Z,8.90
2023-02-24T06:59:43.778Z,9.00
2023-02-24T07:02:11.080Z,9.10
2023-02-24T07:04:44.282Z,9.30
2023-02-24T07:07:14.730Z,9.40
2023-02-24T07:09:43.066Z,9.60
2023-02-24T07:12:11.449Z,9.70
2023-02-24T07:14:38.624Z,9.90
2023-02-24T07:17:06.164Z,10.10
2023-02-24T07:19:33.288Z,10.30
2023-02-24T07:22:03.583Z,10.50
2023-02-24T07:24:36.836Z,10.60
2023-02-24T07:27:22.672Z,10.80
2023-02-24T07:29:53.387Z,10.90
2023-02-24T07:32:22.668Z,11.00
2023-02-24T07:34:49.983Z,11.00
2023-02-24T07:37:17.081Z,11.00
2023-02-24T07:39:44.164Z,11.00
2023-02-24T07:42:15.466Z,11.00
2023-02-24T07:44:44.730Z,11.10
2023-02-24T07:47:41.217Z,11.30
2023-02-24T07:50:14.286Z,11.40
2023-02-24T07:52:41.804Z,11.50
2023-02-24T07:55:09.392Z,11.50
2023-02-24T07:57:41.995Z,11.60
2023-02-24T08:00:28.459Z,11.60
2023-02-24T08:02:57.270Z,11.60
2023-02-24T08:05:24.754Z,11.60
2023-02-24T08:07:52.306Z,11.60
2023-02-24T08:10:25.363Z,11.70
2023-02-24T08:12:54.719Z,11.70
2023-02-24T08:15:26.527Z,11.70
2023-02-24T08:18:01.291Z,11.70
2023-02-24T08:20:36.449Z,11.80
2023-02-24T08:23:06.610Z,11.80
2023-02-24T08:25:36.563Z,11.80
2023-02-24T08:28:09.612Z,11.80
2023-02-24T08:30:40.269Z,11.80
2023-02-24T08:33:10.726Z,11.90
2023-02-24T08:35:45.001Z,11.90
2023-02-24T08:38:19.246Z,11.80
2023-02-24T08:40:52.573Z,11.80
2023-02-24T08:43:29.423Z,11.80
2023-02-24T08:46:01.188Z,11.80
2023-02-24T08:48:39.204Z,11.80
2023-02-24T08:51:35.338Z,11.80
2023-02-24T08:54:11.296Z,11.70
2023-02-24T08:56:43.790Z,11.70
2023-02-24T08:59:50.485Z,11.80
2023-02-24T09:02:29.525Z,11.80
2023-02-24T09:05:14.354Z,11.80
2023-02-24T09:07:42.641Z,11.80
2023-02-24T09:10:18.227Z,11.80
2023-02-24T09:12:45.904Z,11.80
2023-02-24T09:15:17.187Z,11.80
2023-02-24T09:17:45.515Z,11.80
2023-02-24T09:20:33.582Z,11.90
2023-02-24T09:23:04.264Z,11.90
2023-02-24T09:25:44.074Z,11.90
2023-02-24T09:28:17.771Z,12.00
2023-02-24T09:30:57.479Z,12.00
2023-02-24T09:33:39.073Z,12.10
2023-02-24T09:36:30.362Z,12.10
2023-02-24T09:39:00.033Z,12.10
2023-02-24T09:41:57.108Z,12.10
2023-02-24T09:44:39.409Z,12.10
2023-02-24T09:47:31.591Z,12.20
2023-02-24T09:50:35.002Z,12.30
2023-02-24T09:53:17.684Z,12.30
2023-02-24T09:56:00.494Z,12.40
2023-02-24T09:58:53.409Z,12.60
2023-02-24T10:01:37.072Z,12.70
2023-02-24T10:04:49.474Z,12.80
2023-02-24T10:07:23.261Z,12.90
2023-02-24T10:10:18.630Z,13.10
2023-02-24T10:13:35.063Z,13.20
2023-02-24T10:16:11.282Z,13.30
2023-02-24T10:18:38.266Z,13.50
2023-02-24T10:21:06.852Z,13.70
2023-02-24T10:23:56.757Z,13.70
2023-02-24T10:26:35.082Z,13.80
2023-02-24T10:29:22.877Z,13.80
2023-02-24T10:31:58.347Z,13.90
2023-02-24T10:34:31.983Z,14.00
2023-02-24T10:37:19.336Z,14.10
2023-02-24T10:40:01.067Z,14.20
2023-02-24T10:42:34.765Z,14.30
2023-02-24T10:45:18.552Z,14.40
2023-02-24T10:47:58.279Z,14.40
2023-02-24T10:50:56.420Z,14.40
2023-02-24T10:53:41.174Z,14.40
2023-02-24T10:56:41.641Z,14.40
2023-02-24T10:59:31.053Z,14.40
2023-02-24T11:02:24.997Z,14.40
2023-02-24T11:05:02.367Z,14.40
2023-02-24T11:07:44.185Z,14.40
2023-02-24T11:10:43.004Z,14.40
2023-02-24T11:13:35.870Z,14.40
2023-02-24T11:16:21.659Z,14.40
2023-02-24T11:18:52.819Z,14.50
2023-02-24T11:21:23.287Z,14.50
2023-02-24T11:24:02.912Z,14.60
2023-02-24T11:26:38.343Z,14.60
2023-02-24T11:29:27.270Z,14.70
2023-02-24T11:32:18.015Z,14.70
2023-02-24T11:35:05.997Z,14.70
2023-02-24T11:37:46.988Z,14.80
2023-02-24T11:40:24.374Z,14.80
2023-02-24T11:43:11.634Z,14.80
2023-02-24T11:45:48.587Z,14.90
2023-02-24T11:48:37.191Z,15.00
2023-02-24T11:51:34.772Z,15.00
2023-02-24T11:54:06.137Z,15.10
2023-02-24T11:56:41.904Z,15.20
2023-02-24T11:59:16.157Z,15.10
2023-02-24T12:01:57.363Z,15.20
2023-02-24T12:04:31.889Z,15.20
2023-02-24T12:07:06.713Z,15.30
2023-02-24T12:09:45.536Z,15.30
2023-02-24T12:12:17.956Z,15.50
2023-02-24T12:15:04.662Z,15.50
2023-02-24T12:17:44.905Z,15.50
2023-02-24T12:20:23.980Z,15.60
2023-02-24T12:22:58.037Z,15.70
2023-02-24T12:25:35.124Z,15.70
2023-02-24T12:28:21.684Z,15.80
2023-02-24T12:31:01.245Z,15.80
2023-02-24T12:34:09.675Z,15.90
2023-02-24T12:36:45.166Z,15.90
2023-02-24T12:39:22.250Z,16.00
2023-02-24T12:42:05.432Z,15.90
2023-02-24T12:44:48.070Z,15.80
2023-02-24T12:47:34.087Z,15.80
2023-02-24T12:50:23.451Z,15.70
2023-02-24T12:53:06.590Z,15.70
2023-02-24T12:55:38.569Z,15.70
2023-02-24T12:58:31.075Z,15.70
2023-02-24T13:01:21.685Z,15.80
2023-02-24T13:04:05.528Z,15.90
2023-02-24T13:06:35.516Z,16.00
2023-02-24T13:09:37.049Z,15.90
2023-02-24T13:12:09.472Z,15.90
2023-02-24T13:14:41.132Z,15.80
2023-02-24T13:17:11.392Z,15.70
2023-02-24T13:19:40.381Z,15.60
2023-02-24T13:22:23.231Z,15.50
2023-02-24T13:25:21.845Z,15.40
2023-02-24T13:28:02.035Z,15.40
2023-02-24T13:30:42.174Z,15.40
2023-02-24T13:33:18.472Z,15.40
2023-02-24T13:35:48.507Z,15.40
2023-02-24T13:38:38.017Z,15.40
2023-02-24T13:41:23.493Z,15.40
2023-02-24T13:44:25.071Z,15.30
2023-02-24T13:47:12.664Z,15.20
2023-02-24T13:49:45.078Z,15.10
2023-02-24T13:52:36.427Z,15.10
2023-02-24T13:55:12.595Z,15.00
2023-02-24T13:57:54.224Z,15.00
2023-02-24T14:00:39.762Z,14.90
2023-02-24T14:03:19.558Z,14.90
2023-02-24T14:05:48.233Z,14.90
2023-02-24T14:08:43.967Z,14.80
2023-02-24T14:11:16.497Z,14.80
2023-02-24T14:13:50.877Z,14.70
2023-02-24T14:16:25.700Z,14.70
2023-02-24T14:18:55.824Z,14.70
2023-02-24T14:21:25.707Z,14.70
2023-02-24T14:24:13.415Z,14.70
2023-02-24T14:26:50.655Z,14.60
2023-02-24T14:29:27.404Z,14.60
2023-02-24T14:31:56.381Z,14.60
2023-02-24T14:34:26.961Z,14.60
2023-02-24T14:37:00.525Z,14.60
2023-02-24T14:39:32.261Z,14.50
2023-02-24T14:42:08.794Z,14.50
2023-02-24T14:44:47.928Z,14.40
2023-02-24T14:47:17.198Z,14.30
2023-02-24T14:49:55.542Z,14.20
2023-02-24T14:52:52.081Z,14.20
2023-02-24T14:55:23.896Z,14.10
2023-02-24T14:58:07.002Z,14.10
2023-02-24T15:03:52.968Z,14.00
2023-02-24T15:06:50.110Z,14.00
2023-02-24T15:09:31.130Z,14.00
2023-02-24T15:12:12.230Z,14.00
2023-02-24T15:14:48.546Z,14.00
2023-02-24T15:17:19.294Z,14.00
2023-02-24T15:23:08.084Z,13.90
2023-02-24T15:25:52.656Z,13.90
2023-02-24T15:28:33.644Z,13.90
2023-02-24T15:31:18.360Z,13.90
2023-02-24T15:34:21.021Z,13.90
2023-02-24T15:36:51.481Z,13.90
2023-02-24T15:39:26.378Z,13.90
2023-02-24T15:42:07.774Z,13.90
2023-02-24T15:44:39.639Z,13.90
2023-02-24T15:47:27.903Z,13.80
2023-02-24T15:49:55.001Z,13.80
2023-02-24T15:52:29.411Z,13.70
2023-02-24T15:54:59.762Z,13.70
2023-02-24T15:57:30.083Z,13.70
2023-02-24T15:59:57.199Z,13.60
2023-02-24T16:02:25.725Z,13.60
2023-02-24T16:04:53.454Z,13.60
2023-02-24T16:07:32.818Z,13.50
2023-02-24T16:10:01.798Z,13.50
2023-02-24T16:12:35.902Z,13.50
2023-02-24T16:15:14.790Z,13.50
2023-02-24T16:17:42.886Z,13.50
2023-02-24T16:20:16.714Z,13.40
2023-02-24T16:22:43.951Z,13.40
2023-02-24T16:25:15.390Z,13.30
2023-02-24T16:27:42.735Z,13.30
2023-02-24T16:30:19.539Z,13.20
2023-02-24T16:32:48.697Z,13.20
2023-02-24T16:35:16.756Z,13.20
2023-02-24T16:37:47.271Z,13.10
2023-02-24T16:40:23.477Z,13.10
2023-02-24T16:42:52.158Z,13.10
2023-02-24T16:45:21.404Z,13.00
2023-02-24T16:47:50.325Z,13.00
2023-02-24T16:50:26.124Z,13.00
2023-02-24T16:52:53.988Z,13.00
2023-02-24T16:55:21.466Z,13.00
2023-02-24T16:57:49.133Z,12.90
2023-02-24T17:00:17.605Z,12.90
2023-02-24T17:02:45.812Z,12.90
2023-02-24T17:05:23.539Z,12.90
2023-02-24T17:07:53.691Z,12.90
2023-02-24T17:10:22.658Z,12.80
2023-02-24T17:12:50.075Z,12.80
2023-02-24T17:15:20.031Z,12.80
2023-02-24T17:17:47.577Z,12.70
2023-02-24T17:20:17.510Z,12.70
2023-02-24T17:22:45.902Z,12.70
2023-02-24T17:25:23.218Z,12.70
2023-02-24T17:27:53.290Z,12.70
2023-02-24T17:30:24.417Z,12.70
2023-02-24T17:32:53.152Z,12.70
2023-02-24T17:35:20.754Z,12.70
2023-02-24T17:37:48.222Z,12.70
2023-02-24T17:40:16.370Z,12.60
2023-02-24T17:42:43.953Z,12.60
2023-02-24T17:45:13.177Z,12.60
2023-02-24T17:47:40.716Z,12.60
2023-02-24T17:50:10.435Z,12.60
2023-02-24T17:52:39.544Z,12.60
2023-02-24T17:55:08.620Z,12.50
2023-02-24T17:57:37.138Z,12.50
2023-02-24T18:00:06.870Z,12.50
2023-02-24T18:02:34.901Z,12.40
2023-02-24T18:05:03.537Z,12.40
2023-02-24T18:07:31.300Z,12.40
2023-02-24T18:10:00.346Z,12.40
2023-02-24T18:12:28.328Z,12.40
2023-02-24T18:15:07.394Z,12.40
2023-02-24T18:17:38.954Z,12.40
2023-02-24T18:20:08.194Z,12.40
2023-02-24T18:22:36.412Z,12.40
2023-02-24T18:25:04.165Z,12.40
2023-02-24T18:27:31.793Z,12.40
2023-02-24T18:29:59.566Z,12.30
2023-02-24T18:32:28.364Z,12.30
2023-02-24T18:34:56.044Z,12.20
2023-02-24T18:37:23.680Z,12.20
2023-02-24T18:39:53.530Z,12.20
2023-02-24T18:42:21.338Z,12.10
2023-02-24T18:44:49.425Z,12.10
2023-02-24T18:47:17.553Z,12.10
2023-02-24T18:49:45.474Z,12.10
2023-02-24T18:52:14.066Z,12.00
2023-02-24T18:54:41.783Z,12.00
2023-02-24T18:57:09.774Z,11.80
2023-02-24T18:59:38.785Z,11.80
2023-02-24T19:02:06.903Z,11.70
2023-02-24T19:04:34.827Z,11.60
2023-02-24T19:07:02.816Z,11.50
2023-02-24T19:09:30.464Z,11.40
2023-02-24T19:11:58.022Z,11.40
2023-02-24T19:14:25.698Z,11.40
2023-02-24T19:16:53.734Z,11.40
2023-02-24T19:19:23.257Z,11.40
2023-02-24T19:21:52.243Z,11.30
2023-02-24T19:24:20.039Z,11.20
2023-02-24T19:26:48.176Z,11.20
2023-02-24T19:29:16.882Z,11.10
2023-02-24T19:31:45.739Z,11.00
2023-02-24T19:34:15.998Z,11.00
2023-02-24T19:36:43.782Z,10.90
2023-02-24T19:39:14.759Z,11.00
2023-02-24T19:41:43.428Z,10.90
2023-02-24T19:44:11.774Z,10.90
2023-02-24T19:46:40.297Z,10.90
2023-02-24T19:49:08.193Z,10.90
2023-02-24T19:51:36.390Z,10.90
2023-02-24T19:54:06.548Z,10.80
2023-02-24T19:56:39.139Z,10.80
2023-02-24T19:59:08.446Z,10.80
2023-02-24T20:01:36.498Z,10.70
2023-02-24T20:04:06.509Z,10.70
2023-02-24T20:06:37.310Z,10.70
2023-02-24T20:09:17.734Z,10.70
2023-02-24T20:11:46.683Z,10.70
2023-02-24T20:14:16.681Z,10.70
2023-02-24T20:16:44.642Z,10.70
2023-02-24T20:19:17.691Z,10.70
2023-02-24T20:21:45.698Z,10.60
2023-02-24T20:24:15.938Z,10.60
2023-02-24T20:26:47.700Z,10.60
2023-02-24T20:29:17.861Z,10.60
2023-02-24T20:31:49.101Z,10.50
2023-02-24T20:34:17.079Z,10.50
2023-02-24T20:36:44.799Z,10.50
2023-02-24T20:39:13.169Z,10.50
2023-02-24T20:41:41.948Z,10.50
2023-02-24T20:44:10.935Z,10.40
2023-02-24T20:46:39.031Z,10.40
2023-02-24T20:49:09.459Z,10.40
2023-02-24T20:51:40.545Z,10.40
2023-02-24T20:54:10.532Z,10.40
2023-02-24T20:56:40.959Z,10.40
2023-02-24T20:59:17.540Z,10.40
2023-02-24T21:01:47.940Z,10.40
2023-02-24T21:04:19.331Z,10.40
2023-02-24T21:06:51.574Z,10.40
2023-02-24T21:09:19.229Z,10.40
2023-02-24T21:11:47.194Z,10.40
2023-02-24T21:14:16.957Z,10.40
2023-02-24T21:16:46.353Z,10.40
2023-02-24T21:19:14.372Z,10.40
2023-02-24T21:21:42.282Z,10.40
2023-02-24T21:24:09.767Z,10.40
2023-02-24T21:26:37.083Z,10.40
2023-02-24T21:29:04.534Z,10.40
2023-02-24T21:31:31.684Z,10.40
2023-02-24T21:33:59.031Z,10.40
2023-02-24T21:36:28.197Z,10.50
2023-02-24T21:38:56.107Z,10.50
2023-02-24T21:41:24.005Z,10.50
2023-02-24T21:43:55.493Z,10.50
2023-02-24T21:46:25.025Z,10.50
2023-02-24T21:48:57.050Z,10.50
2023-02-24T21:51:25.376Z,10.50
2023-02-24T21:53:55.423Z,10.50
2023-02-24T21:56:26.351Z,10.50
2023-02-24T21:59:05.227Z,10.40
2023-02-24T22:01:38.588Z,10.40
2023-02-24T22:04:08.496Z,10.40
2023-02-24T22:06:37.136Z,10.30
2023-02-24T22:09:06.234Z,10.30
2023-02-24T22:11:35.361Z,10.30
2023-02-24T22:14:03.264Z,10.30
2023-02-24T22:16:30.473Z,10.30
2023-02-24T22:18:57.608Z,10.30
2023-02-24T22:21:28.322Z,10.40
2023-02-24T22:23:59.638Z,10.30
2023-02-24T22:26:28.818Z,10.40
2023-02-24T22:28:56.266Z,10.30
2023-02-24T22:31:26.996Z,10.40
2023-02-24T22:33:54.141Z,10.40
2023-02-24T22:36:25.278Z,10.40
2023-02-24T22:38:53.179Z,10.40
2023-02-24T22:41:22.800Z,10.40
2023-02-24T22:43:50.388Z,10.40
2023-02-24T22:46:27.158Z,10.40
2023-02-24T22:48:56.070Z,10.40
2023-02-24T22:51:24.293Z,10.40
2023-02-24T22:53:51.986Z,10.50
2023-02-24T22:56:22.371Z,10.50
2023-02-24T22:58:49.814Z,10.50
2023-02-24T23:01:23.545Z,10.50
2023-02-24T23:03:50.940Z,10.50
2023-02-24T23:06:28.518Z,10.40
2023-02-24T23:08:56.982Z,10.40
2023-02-24T23:11:30.552Z,10.30
2023-02-24T23:13:59.846Z,10.30
2023-02-24T23:16:31.873Z,10.20
2023-02-24T23:19:01.076Z,9.90
2023-02-24T23:21:46.355Z,9.70
2023-02-24T23:24:14.784Z,9.40
2023-02-24T23:26:48.157Z,9.20
2023-02-24T23:29:17.709Z,9.10
2023-02-24T23:31:45.033Z,8.90
2023-02-24T23:34:12.588Z,8.90
2023-02-24T23:36:43.701Z,8.80
2023-02-24T23:39:13.383Z,8.70
2023-02-24T23:41:44.445Z,8.70
2023-02-24T23:44:12.656Z,8.60
2023-02-24T23:46:41.975Z,8.60
2023-02-24T23:49:09.114Z,8.60
2023-02-24T23:51:47.728Z,8.50
2023-02-24T23:54:19.312Z,8.50
2023-02-24T23:56:46.792Z,8.50
2023-02-24T23:59:14.094Z,8.50
